Startpagina
METAR-TAF:

METAR-TAF

Vliegvelden :

Vlieland Heliport

Vlieland, Nederland

breedte: 53-15N, lengte: 004-55E, hoogte: 11 m

Actueel weer

Dit bericht is 15 minuten geleden gemaakt, om 13:43 UTC
Wind 34 kt uit het westzuidwesten
Temperatuur 10°C
Vochtigheid 82%
Druk 1014 hPa
Zicht: 9000 m
Weinig wolken op 2100 ft
Geheel bewolkt op 35000 ft
nevel

METAR: EHVL 291343Z AUTO 25034KT 9000 BR FEW021 OVC350 10/07 Q1014 BLU

Tijdstip: 14:58 (13:58 UTC)


TAF: ontbreekt

Waarnemingen en weersverwachtingen van meer dan 4000 vliegvelden (METAR en TAF).

De beschikbare stations zijn de gele en rode punten op de kaart.

Ga met uw muis naar het station om de naam te zien.

Klik dan om waarnemingen en weersverwachtingen te zien.

kaart wijzigen: klik op de groene knoppen met een zwart kruis om in te zoomen, op de groene knop met een streepje om uit te zoomen of op de groene pijlen voor aangrenzende kaarten.


METAR-TAF: